createdAt,value
2018-02-07T00:00:37.047Z,11.43
2018-02-07T00:03:06.230Z,10.90
2018-02-07T00:05:36.073Z,10.63
2018-02-07T00:08:05.123Z,11.82
2018-02-07T00:10:34.100Z,11.27
2018-02-07T00:13:07.340Z,11.00
2018-02-07T00:15:36.622Z,11.60
2018-02-07T00:18:06.602Z,10.77
2018-02-07T00:20:37.244Z,11.43
2018-02-07T00:23:06.247Z,11.20
2018-02-07T00:25:34.659Z,13.18
2018-02-07T00:28:05.338Z,11.10
2018-02-07T00:30:35.414Z,10.98
2018-02-07T00:33:06.247Z,11.95
2018-02-07T00:35:37.510Z,12.55
2018-02-07T00:38:11.120Z,11.75
2018-02-07T00:40:42.788Z,10.73
2018-02-07T00:43:12.892Z,11.55
2018-02-07T00:45:46.943Z,11.43
2018-02-07T00:48:15.264Z,10.95
2018-02-07T00:50:43.525Z,13.00
2018-02-07T00:53:13.056Z,11.43
2018-02-07T00:55:42.205Z,12.50
2018-02-07T00:58:12.514Z,10.75
2018-02-07T01:00:41.727Z,10.93
2018-02-07T01:03:11.066Z,11.80
2018-02-07T01:05:40.045Z,12.52
2018-02-07T01:08:10.363Z,11.88
2018-02-07T01:10:41.406Z,11.80
2018-02-07T01:13:10.779Z,12.10
2018-02-07T01:15:40.435Z,11.68
2018-02-07T01:18:08.795Z,11.02
2018-02-07T01:20:37.123Z,12.10
2018-02-07T01:23:07.447Z,11.52
2018-02-07T01:25:35.745Z,11.52
2018-02-07T01:28:03.899Z,12.18
2018-02-07T01:30:32.082Z,11.88
2018-02-07T01:33:00.339Z,11.95
2018-02-07T01:35:29.256Z,13.70
2018-02-07T01:37:57.845Z,11.00
2018-02-07T01:40:26.039Z,12.40
2018-02-07T01:42:54.207Z,11.95
2018-02-07T01:45:22.419Z,12.18
2018-02-07T01:47:51.347Z,12.00
2018-02-07T01:50:19.491Z,13.77
2018-02-07T01:52:48.457Z,12.68
2018-02-07T01:55:16.670Z,12.98
2018-02-07T01:57:44.834Z,12.88
2018-02-07T02:00:13.053Z,12.90
2018-02-07T02:02:41.337Z,12.37
2018-02-07T02:05:09.897Z,12.37
2018-02-07T02:07:38.057Z,11.38
2018-02-07T02:10:06.220Z,12.80
2018-02-07T02:12:34.371Z,12.30
2018-02-07T02:15:03.348Z,12.15
2018-02-07T02:17:31.515Z,11.65
2018-02-07T02:19:59.720Z,12.93
2018-02-07T02:22:28.662Z,11.90
2018-02-07T02:24:56.818Z,11.35
2018-02-07T02:27:25.010Z,11.90
2018-02-07T02:29:53.175Z,11.02
2018-02-07T02:32:21.346Z,11.23
2018-02-07T02:34:54.853Z,10.82
2018-02-07T02:37:30.071Z,11.90
2018-02-07T02:40:04.785Z,12.02
2018-02-07T02:42:34.350Z,11.68
2018-02-07T02:45:02.653Z,12.18
2018-02-07T02:47:31.587Z,11.73
2018-02-07T02:49:59.785Z,11.80
2018-02-07T02:52:27.966Z,11.50
2018-02-07T02:54:56.121Z,11.15
2018-02-07T02:57:24.650Z,10.00
2018-02-07T02:59:52.824Z,11.25
2018-02-07T03:02:20.982Z,11.32
2018-02-07T03:04:49.916Z,12.60
2018-02-07T03:07:18.124Z,9.75
2018-02-07T03:09:46.278Z,12.15
2018-02-07T03:12:14.440Z,10.80
2018-02-07T03:14:42.649Z,11.57
2018-02-07T03:17:11.662Z,11.15
2018-02-07T03:19:39.894Z,11.27
2018-02-07T03:22:08.062Z,14.02
2018-02-07T03:24:36.278Z,11.70
2018-02-07T03:27:04.429Z,12.43
2018-02-07T03:29:32.588Z,11.45
2018-02-07T03:32:00.779Z,12.20
2018-02-07T03:34:28.963Z,12.35
2018-02-07T03:36:57.987Z,13.57
2018-02-07T03:39:26.583Z,12.15
2018-02-07T03:41:54.765Z,13.13
2018-02-07T03:44:22.962Z,11.50
2018-02-07T03:46:51.112Z,12.95
2018-02-07T03:49:19.265Z,12.40
2018-02-07T03:51:47.418Z,14.48
2018-02-07T03:54:15.681Z,10.90
2018-02-07T03:56:44.610Z,12.65
2018-02-07T03:59:12.794Z,12.55
2018-02-07T04:01:40.981Z,13.20
2018-02-07T04:04:09.155Z,13.27
2018-02-07T04:06:37.347Z,11.60
2018-02-07T04:09:05.502Z,13.75
2018-02-07T04:11:33.741Z,12.02
2018-02-07T04:14:01.918Z,11.98
2018-02-07T04:16:30.086Z,11.85
2018-02-07T04:18:58.256Z,12.35
2018-02-07T04:21:26.480Z,12.40
2018-02-07T04:23:54.634Z,18.65
2018-02-07T04:26:22.778Z,12.30
2018-02-07T04:28:50.966Z,12.15
2018-02-07T04:31:19.158Z,14.10
2018-02-07T04:33:47.396Z,13.50
2018-02-07T04:36:15.902Z,13.68
2018-02-07T04:38:44.094Z,14.60
2018-02-07T04:41:12.325Z,13.65
2018-02-07T04:43:40.548Z,12.32
2018-02-07T04:46:08.771Z,13.77
2018-02-07T04:48:37.498Z,13.13
2018-02-07T04:51:05.686Z,12.40
2018-02-07T04:53:33.856Z,13.10
2018-02-07T04:56:02.002Z,13.98
2018-02-07T04:58:30.214Z,12.30
2018-02-07T05:00:59.477Z,13.15
2018-02-07T05:03:27.632Z,15.07
2018-02-07T05:05:55.776Z,12.75
2018-02-07T05:08:24.398Z,13.05
2018-02-07T05:10:52.569Z,12.35
2018-02-07T05:13:20.719Z,12.75
2018-02-07T05:15:48.899Z,13.40
2018-02-07T05:18:17.066Z,12.80
2018-02-07T05:20:45.275Z,13.07
2018-02-07T05:23:13.461Z,13.48
2018-02-07T05:25:41.635Z,13.80
2018-02-07T05:28:09.836Z,12.93
2018-02-07T05:30:38.354Z,13.30
2018-02-07T05:33:06.511Z,12.35
2018-02-07T05:35:34.774Z,13.80
2018-02-07T05:38:02.954Z,11.98
2018-02-07T05:40:31.149Z,13.23
2018-02-07T05:42:59.302Z,13.68
2018-02-07T05:45:28.337Z,12.15
2018-02-07T05:47:56.890Z,13.60
2018-02-07T05:50:25.138Z,12.77
2018-02-07T05:52:53.340Z,14.32
2018-02-07T05:55:21.490Z,13.70
2018-02-07T05:57:49.718Z,12.60
2018-02-07T06:00:17.899Z,13.68
2018-02-07T06:02:46.058Z,12.85
2018-02-07T06:05:14.216Z,13.07
2018-02-07T06:07:42.354Z,14.65
2018-02-07T06:10:10.500Z,12.77
2018-02-07T06:12:39.431Z,12.73
2018-02-07T06:15:07.573Z,13.18
2018-02-07T06:17:36.493Z,12.18
2018-02-07T06:20:04.689Z,12.80
2018-02-07T06:22:32.857Z,12.43
2018-02-07T06:25:01.029Z,12.70
2018-02-07T06:27:29.194Z,12.35
2018-02-07T06:29:57.333Z,12.90
2018-02-07T06:32:25.555Z,12.40
2018-02-07T06:34:53.704Z,13.18
2018-02-07T06:37:21.891Z,13.18
2018-02-07T06:39:50.150Z,12.63
2018-02-07T06:42:18.313Z,12.55
2018-02-07T06:44:46.614Z,14.52
2018-02-07T06:47:14.773Z,14.93
2018-02-07T06:49:42.992Z,13.98
2018-02-07T06:52:11.177Z,14.68
2018-02-07T06:54:39.355Z,14.15
2018-02-07T06:57:08.357Z,14.30
2018-02-07T06:59:37.341Z,14.10
2018-02-07T07:02:06.266Z,13.13
2018-02-07T07:04:34.427Z,12.63
2018-02-07T07:07:02.587Z,12.95
2018-02-07T07:09:31.616Z,12.35
2018-02-07T07:11:59.826Z,12.05
2018-02-07T07:14:27.986Z,13.77
2018-02-07T07:16:56.167Z,13.10
2018-02-07T07:19:24.356Z,11.85
2018-02-07T07:21:52.517Z,12.43
2018-02-07T07:24:24.498Z,12.55
2018-02-07T07:26:52.729Z,12.73
2018-02-07T07:29:20.918Z,11.57
2018-02-07T07:31:49.082Z,12.45
2018-02-07T07:34:17.272Z,13.23
2018-02-07T07:36:45.448Z,12.02
2018-02-07T07:39:13.631Z,13.05
2018-02-07T07:41:41.941Z,12.90
2018-02-07T07:44:10.228Z,13.00
2018-02-07T07:46:38.413Z,12.18
2018-02-07T07:49:06.577Z,12.82
2018-02-07T07:51:34.851Z,12.55
2018-02-07T07:54:03.103Z,13.07
2018-02-07T07:56:31.352Z,12.73
2018-02-07T07:58:59.514Z,12.15
2018-02-07T08:01:28.509Z,13.13
2018-02-07T08:03:56.758Z,10.73
2018-02-07T08:06:24.960Z,15.15
2018-02-07T08:08:53.124Z,12.23
2018-02-07T08:11:22.069Z,11.00
2018-02-07T08:13:50.260Z,13.25
2018-02-07T08:16:18.482Z,13.95
2018-02-07T08:18:47.544Z,13.30
2018-02-07T08:21:15.712Z,13.85
2018-02-07T08:23:43.890Z,12.82
2018-02-07T08:26:12.221Z,12.30
2018-02-07T08:28:40.443Z,13.98
2018-02-07T08:31:08.631Z,12.40
2018-02-07T08:33:36.791Z,13.15
2018-02-07T08:36:04.942Z,13.68
2018-02-07T08:38:33.181Z,13.32
2018-02-07T08:41:01.402Z,12.48
2018-02-07T08:43:29.645Z,12.18
2018-02-07T08:45:57.856Z,11.80
2018-02-07T08:48:26.108Z,11.20
2018-02-07T08:50:55.013Z,14.20
2018-02-07T08:53:23.173Z,11.98
2018-02-07T08:55:51.689Z,11.63
2018-02-07T08:58:19.864Z,12.75
2018-02-07T09:00:48.106Z,13.75
2018-02-07T09:03:16.301Z,12.88
2018-02-07T09:05:44.514Z,12.30
2018-02-07T09:08:13.007Z,12.65
2018-02-07T09:10:41.216Z,11.18
2018-02-07T09:13:09.405Z,12.48
2018-02-07T09:15:37.626Z,13.68
2018-02-07T09:18:06.546Z,12.52
2018-02-07T09:20:34.719Z,11.65
2018-02-07T09:23:02.892Z,11.95
2018-02-07T09:25:31.142Z,13.40
2018-02-07T09:27:59.417Z,13.30
2018-02-07T09:30:27.650Z,12.02
2018-02-07T09:32:55.847Z,11.55
2018-02-07T09:35:24.031Z,11.57
2018-02-07T09:37:52.199Z,11.80
2018-02-07T09:40:20.686Z,10.95
2018-02-07T09:42:48.859Z,11.48
2018-02-07T09:45:17.074Z,11.65
2018-02-07T09:47:45.276Z,13.98
2018-02-07T09:50:13.553Z,11.02
2018-02-07T09:52:41.738Z,10.43
2018-02-07T09:55:11.209Z,10.02
2018-02-07T09:57:39.409Z,11.20
2018-02-07T10:00:08.338Z,10.98
2018-02-07T10:02:36.549Z,10.98
2018-02-07T10:05:04.799Z,10.85
2018-02-07T10:07:32.945Z,12.50
2018-02-07T10:10:01.112Z,10.07
2018-02-07T10:12:29.264Z,10.50
2018-02-07T10:14:58.235Z,22.47
2018-02-07T10:17:26.462Z,38.72
2018-02-07T10:19:54.780Z,52.47
2018-02-07T10:24:53.145Z,28.30
2018-02-07T10:27:21.443Z,26.45
2018-02-07T10:29:50.440Z,39.00
2018-02-07T10:32:18.685Z,23.58
2018-02-07T10:34:46.994Z,62.17
2018-02-07T10:37:15.169Z,32.30
2018-02-07T10:39:43.319Z,21.70
2018-02-07T10:42:11.998Z,30.85
2018-02-07T10:44:40.176Z,30.80
2018-02-07T10:47:08.341Z,31.77
2018-02-07T10:49:36.491Z,24.45
2018-02-07T10:52:04.633Z,28.65
2018-02-07T10:54:32.907Z,17.62
2018-02-07T10:57:01.102Z,14.23
2018-02-07T10:59:30.117Z,13.93
2018-02-07T11:01:58.302Z,13.57
2018-02-07T11:04:26.560Z,22.85
2018-02-07T11:06:54.727Z,22.45
2018-02-07T11:09:22.942Z,19.15
2018-02-07T11:11:51.084Z,25.42
2018-02-07T11:14:19.340Z,15.10
2018-02-07T11:16:47.488Z,17.37
2018-02-07T11:19:15.642Z,16.55
2018-02-07T11:21:43.786Z,12.23
2018-02-07T11:24:11.938Z,12.65
2018-02-07T11:26:40.081Z,12.88
2018-02-07T11:29:08.237Z,13.77
2018-02-07T11:31:36.457Z,11.73
2018-02-07T11:34:04.602Z,13.48
2018-02-07T11:36:32.863Z,9.52
2018-02-07T11:39:01.029Z,15.90
2018-02-07T11:41:29.206Z,10.68
2018-02-07T11:43:57.365Z,10.15
2018-02-07T11:46:25.588Z,10.07
2018-02-07T11:48:53.712Z,9.52
2018-02-07T11:51:21.871Z,9.43
2018-02-07T11:53:50.093Z,11.75
2018-02-07T11:56:18.277Z,9.88
2018-02-07T11:58:47.235Z,12.32
2018-02-07T12:01:15.419Z,11.18
2018-02-07T12:03:43.642Z,13.18
2018-02-07T12:06:11.845Z,13.40
2018-02-07T12:08:40.026Z,11.07
2018-02-07T12:11:08.357Z,9.50
2018-02-07T12:13:36.942Z,11.10
2018-02-07T12:16:05.083Z,11.88
2018-02-07T12:18:34.093Z,11.15
2018-02-07T12:21:02.289Z,11.30
2018-02-07T12:23:30.538Z,10.70
2018-02-07T12:25:58.758Z,10.80
2018-02-07T12:28:26.942Z,10.40
2018-02-07T12:30:55.121Z,10.95
2018-02-07T12:33:23.258Z,10.98
2018-02-07T12:35:51.407Z,12.15
2018-02-07T12:38:19.546Z,10.82
2018-02-07T12:40:47.708Z,10.07
2018-02-07T12:43:15.873Z,10.73
2018-02-07T12:45:44.010Z,9.35
2018-02-07T12:48:12.190Z,10.27
2018-02-07T12:50:40.342Z,10.38
2018-02-07T12:53:08.490Z,13.23
2018-02-07T12:55:37.415Z,10.10
2018-02-07T12:58:05.576Z,9.05
2018-02-07T13:00:33.899Z,9.43
2018-02-07T13:03:02.060Z,9.32
2018-02-07T13:05:30.265Z,9.48
2018-02-07T13:07:58.458Z,12.18
2018-02-07T13:10:27.361Z,10.70
2018-02-07T13:12:55.534Z,11.45
2018-02-07T13:15:23.703Z,11.05
2018-02-07T13:17:51.894Z,10.27
2018-02-07T13:20:20.052Z,9.57
2018-02-07T13:22:48.228Z,11.00
2018-02-07T13:25:16.739Z,10.57
2018-02-07T13:27:45.010Z,9.10
2018-02-07T13:30:13.150Z,9.25
2018-02-07T13:32:41.369Z,9.73
2018-02-07T13:35:09.516Z,10.48
2018-02-07T13:37:38.592Z,10.07
2018-02-07T13:40:07.525Z,8.90
2018-02-07T13:42:35.801Z,10.15
2018-02-07T13:45:03.951Z,9.52
2018-02-07T13:47:32.151Z,9.27
2018-02-07T13:50:00.293Z,9.07
2018-02-07T13:52:28.432Z,8.52
2018-02-07T13:54:57.356Z,9.80
2018-02-07T13:57:25.505Z,9.85
2018-02-07T13:59:54.463Z,8.82
2018-02-07T14:02:22.641Z,12.40
2018-02-07T14:04:50.808Z,9.15
2018-02-07T14:07:18.960Z,8.95
2018-02-07T14:09:47.206Z,9.65
2018-02-07T14:12:15.377Z,8.57
2018-02-07T14:14:43.545Z,9.55
2018-02-07T14:17:11.715Z,8.48
2018-02-07T14:19:39.949Z,9.43
2018-02-07T14:22:08.133Z,11.25
2018-02-07T14:24:36.419Z,8.68
2018-02-07T14:27:05.379Z,8.23
2018-02-07T14:29:33.577Z,8.93
2018-02-07T14:32:02.509Z,14.38
2018-02-07T14:34:30.676Z,9.40
2018-02-07T14:36:58.828Z,10.57
2018-02-07T14:39:26.982Z,9.27
2018-02-07T14:41:55.171Z,10.15
2018-02-07T14:44:24.107Z,11.32
2018-02-07T14:46:52.681Z,8.82
2018-02-07T14:49:20.868Z,12.25
2018-02-07T14:51:50.084Z,10.00
2018-02-07T14:54:18.306Z,10.15
2018-02-07T14:56:46.633Z,8.52
2018-02-07T14:59:14.794Z,9.02
2018-02-07T15:01:42.951Z,8.85
2018-02-07T15:04:11.134Z,8.93
2018-02-07T15:06:39.416Z,9.55
2018-02-07T15:09:07.576Z,8.65
2018-02-07T15:11:35.741Z,9.32
2018-02-07T15:14:03.934Z,9.43
2018-02-07T15:16:33.821Z,11.77
2018-02-07T15:19:02.117Z,10.35
2018-02-07T15:21:30.686Z,10.25
2018-02-07T15:23:58.838Z,10.10
2018-02-07T15:26:27.039Z,9.23
2018-02-07T15:28:55.292Z,8.85
2018-02-07T15:31:23.456Z,10.13
2018-02-07T15:33:51.598Z,9.95
2018-02-07T15:36:20.129Z,9.88
2018-02-07T15:38:49.099Z,9.57
2018-02-07T15:41:17.267Z,9.23
2018-02-07T15:43:46.325Z,8.52
2018-02-07T15:46:14.504Z,10.75
2018-02-07T15:48:43.145Z,9.18
2018-02-07T15:51:11.325Z,10.32
2018-02-07T15:53:39.534Z,9.65
2018-02-07T15:56:07.697Z,8.82
2018-02-07T15:58:35.968Z,13.02
2018-02-07T16:01:04.153Z,8.38
2018-02-07T16:03:32.317Z,9.18
2018-02-07T16:06:00.910Z,9.27
2018-02-07T16:08:29.100Z,11.15
2018-02-07T16:10:58.009Z,9.27
2018-02-07T16:13:26.177Z,11.57
2018-02-07T16:15:55.179Z,9.00
2018-02-07T16:18:23.397Z,9.13
2018-02-07T16:20:51.567Z,9.77
2018-02-07T16:23:20.676Z,8.57
2018-02-07T16:25:50.550Z,8.15
2018-02-07T16:28:18.699Z,8.90
2018-02-07T16:30:46.850Z,8.75
2018-02-07T16:33:16.677Z,8.23
2018-02-07T16:35:45.630Z,8.63
2018-02-07T16:38:13.977Z,8.15
2018-02-07T16:40:42.197Z,9.57
2018-02-07T16:43:10.375Z,7.47
2018-02-07T16:45:38.593Z,9.95
2018-02-07T16:48:06.779Z,8.43
2018-02-07T16:50:35.085Z,8.25
2018-02-07T16:53:03.764Z,8.75
2018-02-07T16:55:31.913Z,8.68
2018-02-07T16:58:00.126Z,8.52
2018-02-07T17:00:29.223Z,9.82
2018-02-07T17:02:57.435Z,10.60
2018-02-07T17:05:25.598Z,8.63
2018-02-07T17:07:53.865Z,9.60
2018-02-07T17:10:22.016Z,9.13
2018-02-07T17:12:50.191Z,9.45
2018-02-07T17:15:18.343Z,8.55
2018-02-07T17:17:46.524Z,14.48
2018-02-07T17:20:14.692Z,9.57
2018-02-07T17:22:42.885Z,10.63
2018-02-07T17:25:11.057Z,10.20
2018-02-07T17:27:40.165Z,10.35
2018-02-07T17:30:09.499Z,11.93
2018-02-07T17:32:37.755Z,10.70
2018-02-07T17:35:05.915Z,10.93
2018-02-07T17:37:34.935Z,10.30
2018-02-07T17:40:03.099Z,11.07
2018-02-07T17:42:31.257Z,11.02
2018-02-07T17:45:00.218Z,11.07
2018-02-07T17:47:28.804Z,10.93
2018-02-07T17:49:57.074Z,10.27
2018-02-07T17:52:25.272Z,11.30
2018-02-07T17:54:54.210Z,11.30
2018-02-07T17:57:22.403Z,11.93
2018-02-07T17:59:50.575Z,13.05
2018-02-07T18:02:18.771Z,15.45
2018-02-07T18:04:46.930Z,11.90
2018-02-07T18:07:15.095Z,12.10
2018-02-07T18:09:43.329Z,11.10
2018-02-07T18:12:11.543Z,14.90
2018-02-07T18:14:39.882Z,15.63
2018-02-07T18:17:08.039Z,15.38
2018-02-07T18:19:36.204Z,15.40
2018-02-07T18:22:05.124Z,18.52
2018-02-07T18:24:33.290Z,14.68
2018-02-07T18:27:01.444Z,17.37
2018-02-07T18:29:29.666Z,16.05
2018-02-07T18:31:57.819Z,15.35
2018-02-07T18:34:25.981Z,16.50
2018-02-07T18:36:54.140Z,14.80
2018-02-07T18:39:22.735Z,15.20
2018-02-07T18:41:50.914Z,15.77
2018-02-07T18:44:19.081Z,16.00
2018-02-07T18:46:47.244Z,15.38
2018-02-07T18:49:15.390Z,17.83
2018-02-07T18:51:44.835Z,14.48
2018-02-07T18:54:12.996Z,15.45
2018-02-07T18:56:41.197Z,15.07
2018-02-07T18:59:09.398Z,15.55
2018-02-07T19:01:37.760Z,15.93
2018-02-07T19:04:05.959Z,16.17
2018-02-07T19:06:34.228Z,16.17
2018-02-07T19:09:03.464Z,15.38
2018-02-07T19:11:31.983Z,15.95
2018-02-07T19:14:00.569Z,16.75
2018-02-07T19:16:29.545Z,15.98
2018-02-07T19:18:57.742Z,16.25
2018-02-07T19:21:26.013Z,16.15
2018-02-07T19:23:54.250Z,17.02
2018-02-07T19:26:22.464Z,17.50
2018-02-07T19:28:50.682Z,16.70
2018-02-07T19:31:20.341Z,16.73
2018-02-07T19:33:49.214Z,19.87
2018-02-07T19:36:17.414Z,15.90
2018-02-07T19:38:45.590Z,17.80
2018-02-07T19:41:13.772Z,18.62
2018-02-07T19:43:41.968Z,17.25
2018-02-07T19:46:10.149Z,18.90
2018-02-07T19:48:38.339Z,16.87
2018-02-07T19:51:06.542Z,16.90
2018-02-07T19:53:34.785Z,18.85
2018-02-07T19:56:03.418Z,18.52
2018-02-07T19:58:31.718Z,19.00
2018-02-07T20:01:00.672Z,18.20
2018-02-07T20:03:28.985Z,18.48
2018-02-07T20:05:57.981Z,18.30
2018-02-07T20:08:26.626Z,17.37
2018-02-07T20:10:54.846Z,19.62
2018-02-07T20:13:23.071Z,20.55
2018-02-07T20:15:51.266Z,19.70
2018-02-07T20:18:19.502Z,18.98
2018-02-07T20:20:47.695Z,18.95
2018-02-07T20:23:15.881Z,17.15
2018-02-07T20:25:44.564Z,18.55
2018-02-07T20:28:12.778Z,19.15
2018-02-07T20:30:40.972Z,19.87
2018-02-07T20:33:09.167Z,19.70
2018-02-07T20:35:37.408Z,21.12
2018-02-07T20:38:06.043Z,20.17
2018-02-07T20:40:34.226Z,21.08
2018-02-07T20:43:02.400Z,20.73
2018-02-07T20:45:30.588Z,21.05
2018-02-07T20:47:59.516Z,21.65
2018-02-07T20:50:29.356Z,20.08
2018-02-07T20:52:57.545Z,21.45
2018-02-07T20:55:26.478Z,20.33
2018-02-07T20:57:54.648Z,21.98
2018-02-07T21:00:22.834Z,22.50
2018-02-07T21:02:51.057Z,21.75
2018-02-07T21:05:20.028Z,21.27
2018-02-07T21:07:48.315Z,21.73
2018-02-07T21:10:16.743Z,20.98
2018-02-07T21:12:45.677Z,24.85
2018-02-07T21:15:13.945Z,28.10
2018-02-07T21:17:42.197Z,22.42
2018-02-07T21:20:10.390Z,22.45
2018-02-07T21:22:39.310Z,21.62
2018-02-07T21:25:08.227Z,20.42
2018-02-07T21:27:36.517Z,20.73
2018-02-07T21:30:04.808Z,22.87
2018-02-07T21:32:33.738Z,20.12
2018-02-07T21:35:01.955Z,20.55
2018-02-07T21:37:30.134Z,21.10
2018-02-07T21:39:58.355Z,22.35
2018-02-07T21:42:27.822Z,21.42
2018-02-07T21:44:56.022Z,20.50
2018-02-07T21:47:24.335Z,21.55
2018-02-07T21:49:52.563Z,19.75
2018-02-07T21:52:20.804Z,20.70
2018-02-07T21:54:49.351Z,22.27
2018-02-07T21:57:18.402Z,22.37
2018-02-07T21:59:46.570Z,21.02
2018-02-07T22:02:14.801Z,21.65
2018-02-07T22:04:43.757Z,23.40
2018-02-07T22:07:11.979Z,22.00
2018-02-07T22:09:40.925Z,21.05
2018-02-07T22:12:09.097Z,20.67
2018-02-07T22:14:37.328Z,22.10
2018-02-07T22:17:05.503Z,20.90
2018-02-07T22:19:33.677Z,21.15
2018-02-07T22:22:01.873Z,22.37
2018-02-07T22:24:30.034Z,22.30
2018-02-07T22:26:58.245Z,22.40
2018-02-07T22:29:26.443Z,23.58
2018-02-07T22:31:54.661Z,26.83
2018-02-07T22:34:22.934Z,22.20
2018-02-07T22:36:51.220Z,22.80
2018-02-07T22:39:20.175Z,22.60
2018-02-07T22:41:48.337Z,22.40
2018-02-07T22:44:16.534Z,23.58
2018-02-07T22:46:44.736Z,23.48
2018-02-07T22:49:12.918Z,27.25
2018-02-07T22:51:41.383Z,25.60
2018-02-07T22:54:09.641Z,25.77
2018-02-07T22:56:37.847Z,26.98
2018-02-07T22:59:06.084Z,28.25
2018-02-07T23:01:34.237Z,25.90
2018-02-07T23:04:04.097Z,27.83
2018-02-07T23:06:32.270Z,25.62
2018-02-07T23:09:00.417Z,25.30
2018-02-07T23:11:28.680Z,30.80
2018-02-07T23:13:57.285Z,28.45
2018-02-07T23:16:25.462Z,26.15
2018-02-07T23:18:53.627Z,26.52
2018-02-07T23:21:21.800Z,28.25
2018-02-07T23:23:49.979Z,26.48
2018-02-07T23:26:18.144Z,29.02
2018-02-07T23:28:46.310Z,26.60
2018-02-07T23:31:14.483Z,28.85
2018-02-07T23:33:42.630Z,24.92
2018-02-07T23:36:10.884Z,25.88
2018-02-07T23:38:39.806Z,28.27
2018-02-07T23:41:07.999Z,26.83
2018-02-07T23:43:36.175Z,25.30
2018-02-07T23:46:04.376Z,24.92
2018-02-07T23:48:32.534Z,27.42
2018-02-07T23:51:00.799Z,26.17
2018-02-07T23:53:28.960Z,26.87
2018-02-07T23:55:57.161Z,26.55
2018-02-07T23:58:25.318Z,29.80
